This is the latest recevied weather packets stored in our database for station/object DC1MAK-13. If no packets are shown the sender has not sent any weather packets the latest 10 day(s).
| Time | Temp. | Humidity | Pressure | Rain* | Wind** | Luminosity | Snow |
|---|---|---|---|---|---|---|---|
| 1787653759 | 17.78° C | 90% | 984.2 hPa | - | - | - | - |
| 1787653753 | 17.78° C | 90% | 984.2 hPa | - | - | - | - |
| 1787653456 | 17.78° C | 93% | 984.2 hPa | - | - | - | - |
| 1787653152 | 17.22° C | 96% | 984.2 hPa | - | - | - | - |
| 1787653146 | 17.22° C | 96% | 984.2 hPa | - | - | - | - |
| 1787652843 | 16.67° C | 95% | 984.2 hPa | - | - | - | - |
| 1787652547 | 16.67° C | 95% | 984.2 hPa | - | - | - | - |
| 1787652247 | 16.67° C | 94% | 984.2 hPa | - | - | - | - |
| 1787652236 | 16.67° C | 94% | 984.2 hPa | - | - | - | - |
| 1787651938 | 16.67° C | 93% | 984.2 hPa | - | - | - | - |
| 1787651932 | 16.67° C | 93% | 984.2 hPa | - | - | - | - |
| 1787651635 | 17.22° C | 91% | 984.3 hPa | - | - | - | - |
| 1787651629 | 17.22° C | 91% | 984.3 hPa | - | - | - | - |
| 1787651331 | 16.67° C | 92% | 984.2 hPa | - | - | - | - |
| 1787651326 | 16.67° C | 92% | 984.2 hPa | - | - | - | - |
| 1787651022 | 16.67° C | 93% | 984.2 hPa | - | - | - | - |
| 1787650727 | 16.67° C | 93% | 984.2 hPa | - | - | - | - |
| 1787650427 | 16.11° C | 95% | 984.1 hPa | - | - | - | - |
| 1787650415 | 16.11° C | 95% | 984.1 hPa | - | - | - | - |
| 1787650118 | 16.11° C | 96% | 984.2 hPa | - | - | - | - |
| 1787650112 | 16.11° C | 96% | 984.2 hPa | - | - | - | - |
| 1787649511 | 15.56° C | 98% | 984.2 hPa | - | - | - | - |
| 1787649505 | 15.56° C | 98% | 984.2 hPa | - | - | - | - |
| 1787648907 | 16.11° C | 93% | 984.2 hPa | - | - | - | - |
| 1787648600 | 16.67° C | 91% | 984.1 hPa | - | - | - | - |
* Rain since midnight (hover to see other rain measurements)
** Current wind speed in m/s (hover to see current wind gust speed)